createdAt,value
2023-05-17T00:01:17.414Z,6.15
2023-05-17T00:03:21.745Z,6.07
2023-05-17T00:05:24.649Z,6.07
2023-05-17T00:07:27.455Z,6.07
2023-05-17T00:09:30.383Z,6.03
2023-05-17T00:11:33.166Z,5.37
2023-05-17T00:13:35.974Z,5.96
2023-05-17T00:15:39.047Z,5.83
2023-05-17T00:17:43.298Z,5.92
2023-05-17T00:19:46.201Z,5.96
2023-05-17T00:21:49.062Z,5.81
2023-05-17T00:23:51.827Z,5.74
2023-05-17T00:25:54.611Z,4.61
2023-05-17T00:27:57.401Z,5.74
2023-05-17T00:30:00.199Z,5.78
2023-05-17T00:32:03.044Z,5.78
2023-05-17T00:34:07.177Z,5.70
2023-05-17T00:36:10.241Z,5.74
2023-05-17T00:38:13.123Z,5.72
2023-05-17T00:40:16.845Z,5.84
2023-05-17T00:42:20.254Z,5.80
2023-05-17T00:44:23.633Z,5.79
2023-05-17T00:46:26.439Z,5.75
2023-05-17T00:48:29.866Z,5.72
2023-05-17T00:50:34.565Z,5.69
2023-05-17T00:52:37.592Z,5.70
2023-05-17T00:54:41.200Z,5.59
2023-05-17T00:56:44.162Z,5.51
2023-05-17T00:58:47.116Z,5.41
2023-05-17T01:00:51.989Z,4.80
2023-05-17T01:02:54.825Z,5.52
2023-05-17T01:04:59.329Z,5.60
2023-05-17T01:07:04.283Z,5.49
2023-05-17T01:09:08.424Z,5.43
2023-05-17T01:11:19.883Z,5.54
2023-05-17T01:13:27.443Z,5.61
2023-05-17T01:15:34.282Z,4.87
2023-05-17T01:17:42.761Z,5.37
2023-05-17T01:19:57.867Z,5.31
2023-05-17T01:22:16.984Z,5.49
2023-05-17T01:24:28.460Z,4.75
2023-05-17T01:26:40.043Z,4.71
2023-05-17T01:28:46.087Z,4.89
2023-05-17T01:30:52.738Z,5.39
2023-05-17T01:32:57.904Z,5.37
2023-05-17T01:35:00.828Z,5.38
2023-05-17T01:37:03.603Z,5.33
2023-05-17T01:39:06.403Z,5.00
2023-05-17T01:41:17.104Z,5.31
2023-05-17T01:43:31.692Z,5.35
2023-05-17T01:45:42.496Z,5.31
2023-05-17T01:47:54.350Z,5.43
2023-05-17T01:50:01.296Z,5.36
2023-05-17T01:52:15.163Z,4.70
2023-05-17T01:54:32.171Z,5.27
2023-05-17T01:56:37.825Z,5.17
2023-05-17T01:58:47.859Z,5.15
2023-05-17T02:00:53.129Z,5.22
2023-05-17T02:02:56.284Z,5.04
2023-05-17T02:04:59.408Z,5.25
2023-05-17T02:07:02.526Z,5.20
2023-05-17T02:09:05.352Z,5.25
2023-05-17T02:11:09.957Z,5.17
2023-05-17T02:13:12.874Z,4.47
2023-05-17T02:15:17.188Z,5.22
2023-05-17T02:17:19.979Z,5.14
2023-05-17T02:19:22.791Z,5.26
2023-05-17T02:21:25.744Z,5.17
2023-05-17T02:23:28.459Z,4.19
2023-05-17T02:25:31.492Z,5.12
2023-05-17T02:27:35.229Z,5.12
2023-05-17T02:29:38.016Z,5.01
2023-05-17T02:31:42.296Z,4.98
2023-05-17T02:33:46.702Z,4.99
2023-05-17T02:35:50.400Z,4.96
2023-05-17T02:37:55.543Z,4.83
2023-05-17T02:39:58.321Z,4.70
2023-05-17T02:42:01.086Z,4.76
2023-05-17T02:44:04.261Z,4.75
2023-05-17T02:46:07.143Z,4.79
2023-05-17T02:48:11.312Z,4.84
2023-05-17T02:50:14.071Z,4.80
2023-05-17T02:52:17.141Z,4.85
2023-05-17T02:54:20.671Z,5.14
2023-05-17T02:56:23.553Z,5.11
2023-05-17T02:58:26.688Z,5.15
2023-05-17T03:00:29.567Z,4.69
2023-05-17T03:02:32.675Z,4.93
2023-05-17T03:04:37.210Z,4.98
2023-05-17T03:06:40.290Z,5.06
2023-05-17T03:08:43.286Z,5.16
2023-05-17T03:10:46.215Z,5.40
2023-05-17T03:12:49.179Z,5.56
2023-05-17T03:14:54.784Z,5.57
2023-05-17T03:16:58.321Z,5.59
2023-05-17T03:19:01.992Z,5.64
2023-05-17T03:21:06.649Z,5.63
2023-05-17T03:23:09.885Z,5.34
2023-05-17T03:25:22.974Z,5.52
2023-05-17T03:27:26.072Z,5.59
2023-05-17T03:29:28.852Z,5.26
2023-05-17T03:31:32.070Z,5.71
2023-05-17T03:33:35.184Z,5.77
2023-05-17T03:35:38.445Z,5.76
2023-05-17T03:37:42.605Z,5.75
2023-05-17T03:39:45.382Z,5.72
2023-05-17T03:41:48.262Z,5.69
2023-05-17T03:43:51.637Z,5.69
2023-05-17T03:45:55.812Z,5.60
2023-05-17T03:47:58.801Z,5.57
2023-05-17T03:50:03.110Z,4.66
2023-05-17T03:52:07.452Z,5.41
2023-05-17T03:54:11.561Z,5.42
2023-05-17T03:56:15.875Z,5.44
2023-05-17T03:58:19.384Z,5.44
2023-05-17T04:00:22.347Z,5.47
2023-05-17T04:02:25.110Z,5.46
2023-05-17T04:04:28.026Z,5.46
2023-05-17T04:06:33.822Z,5.44
2023-05-17T04:08:36.949Z,5.39
2023-05-17T04:10:42.280Z,4.91
2023-05-17T04:12:45.112Z,5.38
2023-05-17T04:14:47.853Z,5.37
2023-05-17T04:16:50.941Z,5.35
2023-05-17T04:18:54.397Z,4.84
2023-05-17T04:20:57.402Z,5.32
2023-05-17T04:23:00.554Z,5.23
2023-05-17T04:25:07.038Z,5.23
2023-05-17T04:27:13.509Z,5.23
2023-05-17T04:29:16.320Z,5.16
2023-05-17T04:31:19.300Z,5.23
2023-05-17T04:33:22.719Z,4.08
2023-05-17T04:35:25.702Z,4.38
2023-05-17T04:37:30.756Z,4.63
2023-05-17T04:39:40.218Z,4.69
2023-05-17T04:41:43.076Z,4.95
2023-05-17T04:44:02.766Z,5.06
2023-05-17T04:46:11.245Z,5.18
2023-05-17T04:48:15.587Z,5.17
2023-05-17T04:50:19.428Z,4.60
2023-05-17T04:52:22.252Z,4.87
2023-05-17T04:54:27.061Z,4.55
2023-05-17T04:56:30.531Z,4.42
2023-05-17T04:58:34.085Z,3.42
2023-05-17T05:00:39.843Z,4.81
2023-05-17T05:02:44.145Z,3.92
2023-05-17T05:04:49.014Z,4.61
2023-05-17T05:06:52.861Z,4.75
2023-05-17T05:08:56.254Z,4.96
2023-05-17T05:10:59.429Z,5.24
2023-05-17T05:13:02.413Z,5.42
2023-05-17T05:15:06.000Z,5.56
2023-05-17T05:17:11.656Z,8.03
2023-05-17T05:19:16.685Z,7.70
2023-05-17T05:21:22.642Z,7.49
2023-05-17T05:23:25.878Z,7.34
2023-05-17T05:25:29.099Z,7.15
2023-05-17T05:27:32.203Z,6.97
2023-05-17T05:29:35.062Z,7.35
2023-05-17T05:31:37.927Z,7.14
2023-05-17T05:33:44.125Z,6.81
2023-05-17T05:35:47.354Z,7.05
2023-05-17T05:37:50.216Z,6.74
2023-05-17T05:39:53.088Z,6.70
2023-05-17T05:41:56.154Z,6.74
2023-05-17T05:43:59.879Z,6.64
2023-05-17T05:46:02.726Z,6.42
2023-05-17T05:48:07.369Z,6.87
2023-05-17T05:50:12.099Z,6.88
2023-05-17T05:52:15.894Z,6.82
2023-05-17T05:54:19.553Z,6.79
2023-05-17T05:56:24.568Z,6.92
2023-05-17T05:58:27.931Z,6.98
2023-05-17T06:00:31.103Z,7.16
2023-05-17T06:02:34.940Z,7.18
2023-05-17T06:04:45.043Z,7.40
2023-05-17T06:06:50.262Z,7.18
2023-05-17T06:08:53.090Z,7.61
2023-05-17T06:10:55.897Z,7.46
2023-05-17T06:12:58.799Z,7.38
2023-05-17T06:15:01.774Z,7.32
2023-05-17T06:17:04.918Z,7.24
2023-05-17T06:19:07.841Z,7.20
2023-05-17T06:21:13.384Z,7.27
2023-05-17T06:23:17.480Z,7.49
2023-05-17T06:25:20.736Z,7.54
2023-05-17T06:27:23.541Z,8.93
2023-05-17T06:29:26.391Z,8.39
2023-05-17T06:31:29.267Z,8.00
2023-05-17T06:33:32.085Z,7.72
2023-05-17T06:35:51.720Z,7.68
2023-05-17T06:37:58.082Z,7.36
2023-05-17T06:40:15.028Z,7.75
2023-05-17T06:42:18.910Z,7.81
2023-05-17T06:44:22.779Z,7.61
2023-05-17T06:46:25.594Z,7.96
2023-05-17T06:48:28.647Z,8.10
2023-05-17T06:50:32.080Z,8.02
2023-05-17T06:52:35.674Z,8.39
2023-05-17T06:54:38.394Z,8.52
2023-05-17T06:56:43.709Z,9.05
2023-05-17T06:58:46.439Z,9.20
2023-05-17T07:00:49.352Z,8.84
2023-05-17T07:02:52.338Z,8.82
2023-05-17T07:04:56.683Z,8.91
2023-05-17T07:06:59.491Z,8.87
2023-05-17T07:09:02.277Z,9.20
2023-05-17T07:11:05.244Z,9.24
2023-05-17T07:13:09.401Z,8.63
2023-05-17T07:15:12.824Z,9.38
2023-05-17T07:17:15.613Z,9.43
2023-05-17T07:19:18.479Z,9.66
2023-05-17T07:21:23.626Z,9.94
2023-05-17T07:23:26.364Z,9.82
2023-05-17T07:25:29.281Z,9.30
2023-05-17T07:27:32.196Z,9.72
2023-05-17T07:29:36.300Z,9.02
2023-05-17T07:31:39.130Z,9.87
2023-05-17T07:33:41.866Z,10.21
2023-05-17T07:35:44.564Z,10.49
2023-05-17T07:37:47.377Z,10.06
2023-05-17T07:39:50.137Z,9.71
2023-05-17T07:41:52.850Z,9.96
2023-05-17T07:43:55.638Z,10.04
2023-05-17T07:45:59.716Z,10.36
2023-05-17T07:48:02.661Z,10.32
2023-05-17T07:50:06.322Z,10.17
2023-05-17T07:52:09.330Z,10.49
2023-05-17T07:54:23.449Z,10.69
2023-05-17T07:56:26.308Z,10.73
2023-05-17T07:58:29.068Z,10.41
2023-05-17T08:00:33.050Z,10.16
2023-05-17T08:02:37.185Z,10.42
2023-05-17T08:04:41.812Z,10.67
2023-05-17T08:06:46.230Z,11.01
2023-05-17T08:08:48.976Z,11.53
2023-05-17T08:10:51.842Z,11.63
2023-05-17T08:12:55.475Z,11.16
2023-05-17T08:14:58.263Z,10.91
2023-05-17T08:17:01.013Z,11.59
2023-05-17T08:19:05.231Z,11.90
2023-05-17T08:21:08.014Z,12.05
2023-05-17T08:23:13.536Z,12.37
2023-05-17T08:25:16.378Z,12.59
2023-05-17T08:27:19.101Z,12.54
2023-05-17T08:29:21.912Z,12.82
2023-05-17T08:31:24.675Z,12.20
2023-05-17T08:33:27.548Z,10.84
2023-05-17T08:35:32.542Z,10.70
2023-05-17T08:37:35.396Z,11.06
2023-05-17T08:39:38.219Z,11.27
2023-05-17T08:41:41.131Z,11.55
2023-05-17T08:43:44.036Z,11.81
2023-05-17T08:45:47.379Z,11.01
2023-05-17T08:47:51.235Z,11.24
2023-05-17T08:49:57.605Z,11.16
2023-05-17T08:52:09.729Z,11.32
2023-05-17T08:54:12.633Z,11.73
2023-05-17T08:56:18.590Z,12.07
2023-05-17T08:58:26.797Z,11.37
2023-05-17T09:00:29.873Z,11.57
2023-05-17T09:02:33.188Z,11.54
2023-05-17T09:04:36.285Z,11.67
2023-05-17T09:06:39.662Z,11.93
2023-05-17T09:08:44.405Z,12.06
2023-05-17T09:10:47.192Z,12.26
2023-05-17T09:12:50.662Z,12.24
2023-05-17T09:14:53.454Z,12.00
2023-05-17T09:16:58.394Z,11.67
2023-05-17T09:19:02.217Z,11.69
2023-05-17T09:21:05.466Z,12.19
2023-05-17T09:23:10.237Z,12.87
2023-05-17T09:25:20.904Z,13.02
2023-05-17T09:27:24.604Z,12.42
2023-05-17T09:29:27.360Z,12.38
2023-05-17T09:31:30.122Z,12.01
2023-05-17T09:33:32.956Z,12.59
2023-05-17T09:35:36.998Z,12.92
2023-05-17T09:37:39.882Z,13.23
2023-05-17T09:39:44.788Z,12.81
2023-05-17T09:41:50.006Z,13.26
2023-05-17T09:43:52.781Z,12.88
2023-05-17T09:45:58.902Z,12.85
2023-05-17T09:48:13.664Z,12.55
2023-05-17T09:50:20.064Z,13.05
2023-05-17T09:52:23.130Z,13.44
2023-05-17T09:54:25.935Z,13.41
2023-05-17T09:56:32.185Z,13.49
2023-05-17T09:58:38.602Z,13.58
2023-05-17T10:00:43.897Z,12.91
2023-05-17T10:02:51.165Z,12.60
2023-05-17T10:04:57.630Z,12.81
2023-05-17T10:07:02.187Z,12.59
2023-05-17T10:09:06.094Z,12.59
2023-05-17T10:11:10.811Z,13.12
2023-05-17T10:13:15.968Z,13.68
2023-05-17T10:15:21.668Z,14.26
2023-05-17T10:17:26.702Z,14.53
2023-05-17T10:19:29.938Z,14.62
2023-05-17T10:21:33.291Z,15.13
2023-05-17T10:23:38.912Z,15.79
2023-05-17T10:25:43.046Z,15.61
2023-05-17T10:27:47.307Z,15.72
2023-05-17T10:29:51.099Z,15.36
2023-05-17T10:31:56.190Z,14.58
2023-05-17T10:34:00.266Z,13.63
2023-05-17T10:36:03.419Z,13.25
2023-05-17T10:38:06.230Z,13.96
2023-05-17T10:40:13.606Z,14.19
2023-05-17T10:42:19.088Z,13.87
2023-05-17T10:44:22.962Z,14.42
2023-05-17T10:46:26.032Z,14.27
2023-05-17T10:48:31.893Z,14.18
2023-05-17T10:50:41.088Z,14.26
2023-05-17T10:52:51.236Z,14.38
2023-05-17T10:54:55.243Z,14.67
2023-05-17T10:57:07.855Z,15.49
2023-05-17T10:59:22.973Z,15.55
2023-05-17T11:01:54.765Z,15.70
2023-05-17T11:03:59.702Z,16.21
2023-05-17T11:06:24.361Z,15.67
2023-05-17T11:08:28.518Z,15.07
2023-05-17T11:10:31.332Z,15.03
2023-05-17T11:12:40.556Z,14.79
2023-05-17T11:14:56.426Z,14.42
2023-05-17T11:16:59.186Z,13.88
2023-05-17T11:19:08.601Z,14.21
2023-05-17T11:21:15.559Z,14.39
2023-05-17T11:23:19.348Z,14.77
2023-05-17T11:25:22.830Z,14.80
2023-05-17T11:27:28.833Z,13.41
2023-05-17T11:29:31.846Z,13.64
2023-05-17T11:31:36.545Z,14.24
2023-05-17T11:33:41.270Z,14.24
2023-05-17T11:35:46.429Z,14.24
2023-05-17T11:37:53.395Z,14.71
2023-05-17T11:40:03.637Z,14.47
2023-05-17T11:42:06.594Z,14.71
2023-05-17T11:44:10.107Z,15.36
2023-05-17T11:46:21.083Z,15.28
2023-05-17T11:48:26.444Z,14.99
2023-05-17T11:50:30.696Z,14.71
2023-05-17T11:52:35.661Z,13.60
2023-05-17T11:54:41.217Z,15.28
2023-05-17T11:56:44.429Z,15.13
2023-05-17T11:58:52.849Z,15.37
2023-05-17T12:00:57.935Z,15.36
2023-05-17T12:03:16.258Z,14.42
2023-05-17T12:05:21.100Z,14.88
2023-05-17T12:07:25.598Z,14.97
2023-05-17T12:09:30.005Z,14.19
2023-05-17T12:11:33.696Z,14.29
2023-05-17T12:13:36.907Z,14.25
2023-05-17T12:15:40.963Z,13.89
2023-05-17T12:17:46.925Z,13.61
2023-05-17T12:19:53.898Z,13.30
2023-05-17T12:22:07.682Z,14.20
2023-05-17T12:24:10.429Z,15.21
2023-05-17T12:26:15.741Z,14.51
2023-05-17T12:28:22.209Z,15.25
2023-05-17T12:30:25.970Z,14.72
2023-05-17T12:32:28.937Z,14.79
2023-05-17T12:34:32.121Z,15.29
2023-05-17T12:36:35.916Z,15.38
2023-05-17T12:38:41.086Z,15.54
2023-05-17T12:40:44.160Z,15.05
2023-05-17T12:42:48.333Z,15.08
2023-05-17T12:44:51.198Z,15.11
2023-05-17T12:46:56.316Z,15.77
2023-05-17T12:49:06.549Z,15.71
2023-05-17T12:51:12.180Z,15.79
2023-05-17T12:53:15.156Z,15.79
2023-05-17T12:55:17.942Z,15.90
2023-05-17T12:57:20.810Z,16.44
2023-05-17T12:59:26.243Z,17.25
2023-05-17T13:01:34.253Z,16.54
2023-05-17T13:03:37.332Z,15.94
2023-05-17T13:05:41.298Z,16.85
2023-05-17T13:07:44.067Z,17.68
2023-05-17T13:09:48.831Z,17.64
2023-05-17T13:11:52.194Z,16.47
2023-05-17T13:13:54.943Z,16.16
2023-05-17T13:15:59.465Z,16.49
2023-05-17T13:18:13.868Z,16.52
2023-05-17T13:20:17.339Z,16.91
2023-05-17T13:22:20.811Z,16.95
2023-05-17T13:24:23.532Z,16.86
2023-05-17T13:26:26.277Z,16.77
2023-05-17T13:28:28.990Z,16.35
2023-05-17T13:30:32.301Z,16.68
2023-05-17T13:32:36.547Z,16.21
2023-05-17T13:34:40.024Z,16.88
2023-05-17T13:36:43.391Z,17.62
2023-05-17T13:38:46.189Z,16.52
2023-05-17T13:40:49.001Z,16.72
2023-05-17T13:42:51.738Z,16.56
2023-05-17T13:44:54.470Z,16.27
2023-05-17T13:46:57.158Z,15.90
2023-05-17T13:49:02.705Z,16.61
2023-05-17T13:51:05.589Z,16.49
2023-05-17T13:53:08.417Z,15.32
2023-05-17T13:55:11.369Z,15.21
2023-05-17T13:57:14.298Z,15.27
2023-05-17T13:59:17.091Z,16.09
2023-05-17T14:01:19.981Z,16.31
2023-05-17T14:03:23.153Z,15.08
2023-05-17T14:05:27.466Z,15.66
2023-05-17T14:07:30.175Z,15.48
2023-05-17T14:09:34.455Z,16.37
2023-05-17T14:11:37.228Z,16.13
2023-05-17T14:13:40.460Z,15.22
2023-05-17T14:15:43.234Z,14.73
2023-05-17T14:17:46.154Z,14.03
2023-05-17T14:19:49.060Z,14.19
2023-05-17T14:21:53.585Z,14.13
2023-05-17T14:23:56.358Z,13.59
2023-05-17T14:25:59.103Z,13.90
2023-05-17T14:28:01.876Z,13.61
2023-05-17T14:30:05.040Z,13.61
2023-05-17T14:32:08.239Z,13.27
2023-05-17T14:34:11.037Z,13.31
2023-05-17T14:36:14.369Z,13.28
2023-05-17T14:38:20.409Z,13.63
2023-05-17T14:40:23.202Z,13.24
2023-05-17T14:42:26.818Z,13.14
2023-05-17T14:44:29.932Z,13.72
2023-05-17T14:46:34.309Z,13.77
2023-05-17T14:48:37.347Z,13.29
2023-05-17T14:50:40.116Z,13.79
2023-05-17T14:52:43.942Z,15.01
2023-05-17T14:54:48.129Z,15.73
2023-05-17T14:56:50.892Z,15.35
2023-05-17T14:58:53.649Z,15.23
2023-05-17T15:01:04.923Z,14.75
2023-05-17T15:03:09.248Z,14.54
2023-05-17T15:05:12.526Z,14.48
2023-05-17T15:07:15.375Z,14.74
2023-05-17T15:09:18.747Z,14.08
2023-05-17T15:11:23.606Z,13.80
2023-05-17T15:13:26.489Z,13.38
2023-05-17T15:15:29.983Z,12.71
2023-05-17T15:17:33.108Z,13.07
2023-05-17T15:19:36.136Z,12.99
2023-05-17T15:21:39.030Z,13.18
2023-05-17T15:23:42.240Z,13.19
2023-05-17T15:25:45.082Z,12.97
2023-05-17T15:27:49.590Z,12.73
2023-05-17T15:29:52.375Z,11.83
2023-05-17T15:31:55.128Z,12.56
2023-05-17T15:33:59.196Z,12.92
2023-05-17T15:36:02.009Z,13.40
2023-05-17T15:38:06.687Z,12.81
2023-05-17T15:40:11.242Z,13.00
2023-05-17T15:42:14.020Z,12.47
2023-05-17T15:44:18.722Z,12.54
2023-05-17T15:46:21.968Z,12.74
2023-05-17T15:48:26.215Z,12.20
2023-05-17T15:50:29.278Z,12.74
2023-05-17T15:52:32.051Z,12.34
2023-05-17T15:54:34.790Z,12.23
2023-05-17T15:56:38.628Z,12.00
2023-05-17T15:58:41.377Z,11.85
2023-05-17T16:00:45.807Z,11.53
2023-05-17T16:02:48.634Z,11.43
2023-05-17T16:04:51.652Z,11.28
2023-05-17T16:06:54.435Z,11.55
2023-05-17T16:08:57.189Z,11.86
2023-05-17T16:11:02.066Z,11.84
2023-05-17T16:13:05.906Z,11.73
2023-05-17T16:15:10.127Z,11.71
2023-05-17T16:17:14.224Z,11.60
2023-05-17T16:19:17.064Z,11.58
2023-05-17T16:21:19.995Z,11.68
2023-05-17T16:23:22.806Z,12.01
2023-05-17T16:25:26.088Z,11.50
2023-05-17T16:27:28.867Z,11.48
2023-05-17T16:29:33.126Z,11.20
2023-05-17T16:31:36.174Z,11.56
2023-05-17T16:33:41.376Z,11.41
2023-05-17T16:35:44.305Z,11.60
2023-05-17T16:37:47.171Z,11.67
2023-05-17T16:39:50.200Z,11.51
2023-05-17T16:41:54.703Z,11.49
2023-05-17T16:43:57.467Z,11.67
2023-05-17T16:46:00.285Z,11.35
2023-05-17T16:48:03.197Z,12.10
2023-05-17T16:50:09.098Z,12.88
2023-05-17T16:52:12.165Z,14.24
2023-05-17T16:54:14.950Z,15.19
2023-05-17T16:56:17.768Z,15.62
2023-05-17T16:58:20.546Z,15.49
2023-05-17T17:00:23.692Z,14.90
2023-05-17T17:02:26.781Z,16.84
2023-05-17T17:04:29.632Z,16.02
2023-05-17T17:06:34.287Z,16.84
2023-05-17T17:08:38.115Z,16.49
2023-05-17T17:10:41.003Z,16.33
2023-05-17T17:12:43.896Z,16.78
2023-05-17T17:14:46.901Z,17.33
2023-05-17T17:16:49.793Z,17.37
2023-05-17T17:18:52.587Z,17.91
2023-05-17T17:20:55.533Z,17.30
2023-05-17T17:22:59.703Z,16.59
2023-05-17T17:25:02.471Z,16.62
2023-05-17T17:27:05.704Z,15.83
2023-05-17T17:29:10.304Z,15.94
2023-05-17T17:31:13.142Z,16.64
2023-05-17T17:33:15.962Z,18.72
2023-05-17T17:35:18.848Z,19.70
2023-05-17T17:37:21.619Z,19.38
2023-05-17T17:39:25.934Z,20.16
2023-05-17T17:41:28.798Z,19.11
2023-05-17T17:43:31.605Z,19.49
2023-05-17T17:45:34.400Z,19.92
2023-05-17T17:47:37.284Z,18.28
2023-05-17T17:49:40.093Z,18.99
2023-05-17T17:51:42.919Z,19.06
2023-05-17T17:53:45.864Z,17.79
2023-05-17T17:55:50.185Z,17.92
2023-05-17T17:57:52.993Z,16.90
2023-05-17T17:59:56.253Z,16.81
2023-05-17T18:01:59.640Z,16.18
2023-05-17T18:04:02.478Z,16.39
2023-05-17T18:06:05.802Z,15.21
2023-05-17T18:08:08.655Z,15.07
2023-05-17T18:10:12.375Z,14.08
2023-05-17T18:12:16.580Z,14.49
2023-05-17T18:14:19.538Z,14.22
2023-05-17T18:16:22.343Z,13.81
2023-05-17T18:18:25.163Z,14.52
2023-05-17T18:20:28.158Z,14.30
2023-05-17T18:22:31.170Z,13.82
2023-05-17T18:24:34.005Z,13.57
2023-05-17T18:26:36.765Z,14.04
2023-05-17T18:28:42.944Z,13.23
2023-05-17T18:30:46.016Z,13.34
2023-05-17T18:32:49.152Z,13.12
2023-05-17T18:34:52.066Z,13.26
2023-05-17T18:36:54.956Z,13.01
2023-05-17T18:39:00.863Z,13.06
2023-05-17T18:41:03.790Z,12.85
2023-05-17T18:43:06.812Z,10.81
2023-05-17T18:45:11.873Z,12.24
2023-05-17T18:47:15.112Z,12.30
2023-05-17T18:49:18.120Z,12.01
2023-05-17T18:51:21.180Z,10.99
2023-05-17T18:53:24.117Z,11.44
2023-05-17T18:55:26.952Z,11.96
2023-05-17T18:57:30.275Z,11.83
2023-05-17T18:59:33.857Z,11.75
2023-05-17T19:01:38.228Z,11.11
2023-05-17T19:03:41.105Z,11.54
2023-05-17T19:05:43.926Z,11.23
2023-05-17T19:07:46.702Z,11.48
2023-05-17T19:09:49.506Z,11.56
2023-05-17T19:11:52.279Z,11.43
2023-05-17T19:13:56.276Z,10.10
2023-05-17T19:16:00.360Z,10.36
2023-05-17T19:18:04.731Z,11.22
2023-05-17T19:20:09.006Z,11.23
2023-05-17T19:22:11.784Z,11.05
2023-05-17T19:24:14.572Z,10.65
2023-05-17T19:26:17.343Z,10.82
2023-05-17T19:28:20.444Z,10.28
2023-05-17T19:30:23.244Z,10.83
2023-05-17T19:32:26.882Z,10.42
2023-05-17T19:34:31.241Z,10.17
2023-05-17T19:36:34.156Z,11.68
2023-05-17T19:38:36.975Z,11.17
2023-05-17T19:40:40.821Z,10.48
2023-05-17T19:42:43.622Z,10.10
2023-05-17T19:44:46.403Z,10.06
2023-05-17T19:46:49.222Z,10.00
2023-05-17T19:48:52.760Z,9.74
2023-05-17T19:50:56.989Z,9.41
2023-05-17T19:52:59.823Z,9.25
2023-05-17T19:55:02.688Z,10.00
2023-05-17T19:57:06.112Z,9.60
2023-05-17T19:59:09.024Z,9.33
2023-05-17T20:01:12.339Z,9.50
2023-05-17T20:03:15.704Z,9.56
2023-05-17T20:05:19.579Z,9.44
2023-05-17T20:07:25.850Z,9.33
2023-05-17T20:09:30.348Z,8.95
2023-05-17T20:11:33.292Z,8.66
2023-05-17T20:13:40.053Z,8.87
2023-05-17T20:15:42.965Z,9.08
2023-05-17T20:17:45.914Z,9.04
2023-05-17T20:19:49.023Z,8.87
2023-05-17T20:21:51.840Z,8.99
2023-05-17T20:24:01.437Z,9.11
2023-05-17T20:26:04.436Z,9.09
2023-05-17T20:28:07.235Z,8.95
2023-05-17T20:30:10.774Z,8.61
2023-05-17T20:32:13.728Z,8.94
2023-05-17T20:34:16.490Z,8.98
2023-05-17T20:36:19.267Z,8.92
2023-05-17T20:38:22.957Z,8.64
2023-05-17T20:40:27.315Z,6.84
2023-05-17T20:42:31.095Z,8.72
2023-05-17T20:44:34.145Z,8.59
2023-05-17T20:46:36.951Z,8.55
2023-05-17T20:48:42.591Z,8.36
2023-05-17T20:50:45.756Z,8.31
2023-05-17T20:52:48.577Z,6.58
2023-05-17T20:54:51.861Z,7.89
2023-05-17T20:56:56.221Z,8.30
2023-05-17T20:58:58.919Z,8.23
2023-05-17T21:01:01.856Z,8.32
2023-05-17T21:03:04.811Z,8.34
2023-05-17T21:05:09.344Z,8.35
2023-05-17T21:07:12.305Z,7.88
2023-05-17T21:09:15.180Z,7.55
2023-05-17T21:11:21.277Z,7.93
2023-05-17T21:13:26.403Z,7.80
2023-05-17T21:15:29.244Z,7.85
2023-05-17T21:17:32.028Z,7.60
2023-05-17T21:19:34.802Z,7.71
2023-05-17T21:21:37.825Z,7.96
2023-05-17T21:23:40.794Z,7.53
2023-05-17T21:25:44.372Z,7.87
2023-05-17T21:27:47.372Z,7.93
2023-05-17T21:29:51.499Z,5.57
2023-05-17T21:31:54.351Z,7.97
2023-05-17T21:33:57.226Z,7.95
2023-05-17T21:36:00.035Z,7.91
2023-05-17T21:38:02.828Z,7.69
2023-05-17T21:40:06.520Z,7.78
2023-05-17T21:42:09.366Z,7.77
2023-05-17T21:44:12.144Z,6.70
2023-05-17T21:46:16.389Z,7.83
2023-05-17T21:48:19.224Z,7.18
2023-05-17T21:50:22.623Z,7.80
2023-05-17T21:52:25.560Z,7.81
2023-05-17T21:54:28.529Z,7.79
2023-05-17T21:56:31.344Z,7.66
2023-05-17T21:58:34.115Z,6.56
2023-05-17T22:00:37.563Z,7.59
2023-05-17T22:02:42.244Z,7.55
2023-05-17T22:04:45.122Z,7.46
2023-05-17T22:06:48.167Z,7.31
2023-05-17T22:08:50.955Z,7.46
2023-05-17T22:10:54.468Z,7.47
2023-05-17T22:12:58.110Z,7.57
2023-05-17T22:15:01.541Z,7.66
2023-05-17T22:17:08.411Z,7.63
2023-05-17T22:19:12.646Z,6.98
2023-05-17T22:21:15.510Z,7.62
2023-05-17T22:23:18.370Z,7.43
2023-05-17T22:25:21.197Z,7.48
2023-05-17T22:27:24.040Z,6.77
2023-05-17T22:29:26.887Z,7.29
2023-05-17T22:31:29.849Z,7.05
2023-05-17T22:33:32.854Z,7.38
2023-05-17T22:35:38.143Z,7.27
2023-05-17T22:37:42.661Z,7.25
2023-05-17T22:39:45.950Z,7.13
2023-05-17T22:41:48.731Z,7.22
2023-05-17T22:43:51.535Z,7.01
2023-05-17T22:45:54.309Z,7.00
2023-05-17T22:47:57.237Z,7.02
2023-05-17T22:50:00.777Z,6.82
2023-05-17T22:52:06.696Z,7.02
2023-05-17T22:54:09.452Z,6.98
2023-05-17T22:56:12.277Z,6.92
2023-05-17T22:58:15.200Z,6.76
2023-05-17T23:00:18.830Z,6.83
2023-05-17T23:02:21.669Z,6.97
2023-05-17T23:04:25.986Z,6.74
2023-05-17T23:06:32.117Z,6.28
2023-05-17T23:08:36.271Z,6.53
2023-05-17T23:10:39.069Z,6.55
2023-05-17T23:12:42.145Z,6.71
2023-05-17T23:14:45.493Z,6.72
2023-05-17T23:16:48.348Z,6.76
2023-05-17T23:18:51.208Z,6.68
2023-05-17T23:20:54.019Z,6.61
2023-05-17T23:22:59.457Z,6.70
2023-05-17T23:25:04.556Z,6.65
2023-05-17T23:27:09.853Z,6.66
2023-05-17T23:29:12.862Z,6.42
2023-05-17T23:31:16.421Z,6.62
2023-05-17T23:33:19.350Z,6.56
2023-05-17T23:35:22.472Z,6.61
2023-05-17T23:37:25.342Z,6.37
2023-05-17T23:39:28.127Z,6.32
2023-05-17T23:41:32.197Z,6.12
2023-05-17T23:43:35.569Z,6.17
2023-05-17T23:45:38.695Z,6.17
2023-05-17T23:47:41.606Z,6.22
2023-05-17T23:49:44.474Z,6.17
2023-05-17T23:51:47.276Z,6.20
2023-05-17T23:53:50.105Z,6.21
2023-05-17T23:55:52.957Z,5.47
2023-05-17T23:57:57.061Z,6.29
2023-05-17T23:59:59.794Z,6.35
